LF6626 weather

Public forecast

Using degrees Celsius for public forecast. Weather courtesy of forecast.io.

Closest aviation weather report (METAR) to Mont Llaret Roc d'Aude Airfield

Closest report is Pirineus - la Seu d'Urgel Airport, 30.9 nm (57.2 km) WSW. Retrieved 2020/08/10 15:30 UTC (22 minutes ago):

LESU 101530Z 23003KT 200V270 9999 SCT060 26/15 Q1019

Closest aviation forecast (TAF) to Mont Llaret Roc d'Aude Airfield

Closest forecast is Pirineus - la Seu d'Urgel Airport, 30.9 nm (57.2 km) WSW. Retrieved 2020/08/10 15:00 UTC (52 minutes ago):

TAF LESU 101400Z 1015/1115 VRB04KT 9999 SCT070 TX33/1115Z TN18/1105Z PROB40 TEMPO 1015/1022 VRB15G25KT TSRA FEW060CB BKN070